Time;durP1;ratioP1;P1;durP2;ratioP2;P2;SDS_P1;SDS_P2;PMS_P1;PMS_P2;Temp;Humidity;BMP_temperature;BMP_pressure;BME280_temperature;BME280_humidity;BME280_pressure;Samples;Min_cycle;Max_cycle;Signal;HPM_P1;HPM_P2
2023/05/30 00:01:31;;;;;;;8.60;1.55;;;;;;;13.85;77.08;101481.81;5179137;28;20442;-75
2023/05/30 00:04:01;;;;;;;7.57;1.45;;;;;;;13.72;76.92;101478.75;5185349;28;20040;-74
2023/05/30 00:06:32;;;;;;;7.40;1.45;;;;;;;13.66;78.44;101485.97;5181936;28;20063;-74
2023/05/30 00:09:03;;;;;;;6.72;1.30;;;;;;;13.70;77.70;101484.97;5176413;28;20021;-74
2023/05/30 00:11:33;;;;;;;10.20;1.20;;;;;;;13.64;77.06;101478.16;5178241;28;20064;-76
2023/05/30 00:14:04;;;;;;;6.22;1.35;;;;;;;13.48;78.62;101489.22;5183818;28;20113;-76
2023/05/30 00:16:35;;;;;;;10.18;2.38;;;;;;;13.59;78.95;101505.50;5186787;28;20025;-75
2023/05/30 00:19:07;;;;;;;6.22;1.38;;;;;;;13.57;78.56;101500.28;5174431;28;20068;-75
2023/05/30 00:21:37;;;;;;;8.95;1.40;;;;;;;13.51;79.17;101494.38;5190957;28;20040;-77
2023/05/30 00:24:08;;;;;;;7.20;1.30;;;;;;;13.55;79.16;101502.09;5190062;28;20033;-75
2023/05/30 00:26:38;;;;;;;13.55;2.72;;;;;;;13.44;79.64;101501.56;5189470;28;20204;-76
2023/05/30 00:29:08;;;;;;;7.05;1.20;;;;;;;13.42;79.13;101505.19;5183289;28;20041;-76
2023/05/30 00:31:39;;;;;;;4.43;1.20;;;;;;;13.21;80.63;101501.47;5189267;28;22116;-76
2023/05/30 00:34:09;;;;;;;7.40;1.73;;;;;;;13.36;80.01;101505.34;5188521;28;20044;-74
2023/05/30 00:36:39;;;;;;;8.50;1.27;;;;;;;13.36;80.03;101500.97;5189292;28;20560;-71
2023/05/30 00:39:10;;;;;;;8.93;1.42;;;;;;;13.25;80.56;101502.25;5188998;28;20041;-71
2023/05/30 00:41:40;;;;;;;8.88;1.58;;;;;;;13.19;80.58;101505.03;5187738;28;20203;-71
2023/05/30 00:44:10;;;;;;;10.07;1.50;;;;;;;13.01;81.07;101497.72;5177397;28;20072;-73
2023/05/30 00:46:41;;;;;;;8.80;1.67;;;;;;;13.16;81.28;101503.38;5184191;28;20041;-73
2023/05/30 00:49:12;;;;;;;10.80;1.63;;;;;;;13.10;80.48;101503.56;5185366;28;20423;-75
2023/05/30 00:51:42;;;;;;;9.93;1.45;;;;;;;13.14;81.07;101499.06;5188322;28;20037;-73
2023/05/30 00:54:13;;;;;;;8.85;1.83;;;;;;;13.08;81.17;101507.16;5191089;28;20026;-76
2023/05/30 00:56:44;;;;;;;9.70;1.67;;;;;;;13.02;81.51;101507.31;5191956;28;20026;-74
2023/05/30 00:59:14;;;;;;;11.82;1.50;;;;;;;13.11;81.75;101507.94;5181482;28;20118;-77
2023/05/30 01:01:45;;;;;;;6.82;1.33;;;;;;;13.03;81.29;101511.69;5187812;28;20030;-76
2023/05/30 01:04:15;;;;;;;11.65;1.52;;;;;;;13.00;82.61;101512.63;5187223;28;20032;-76
2023/05/30 01:06:46;;;;;;;10.18;1.63;;;;;;;12.91;82.33;101512.03;5195675;28;20440;-74
2023/05/30 01:09:18;;;;;;;7.68;1.50;;;;;;;12.65;83.36;101519.78;5188298;28;20083;-75
2023/05/30 01:12:01;;;;;;;15.48;1.60;;;;;;;12.77;82.94;101514.19;5188657;28;20434;-71
2023/05/30 01:14:56;;;;;;;13.07;1.70;;;;;;;12.75;82.62;101516.00;5185725;28;20014;-76
2023/05/30 01:17:54;;;;;;;5.95;1.40;;;;;;;12.75;83.06;101510.75;5187052;28;20033;-75
2023/05/30 01:20:26;;;;;;;7.38;1.90;;;;;;;12.77;83.98;101522.06;5189392;28;20034;-73
2023/05/30 01:23:02;;;;;;;12.05;2.03;;;;;;;12.78;84.26;101520.31;5186550;28;20029;-75
2023/05/30 01:25:35;;;;;;;7.95;1.25;;;;;;;12.79;83.67;101532.53;5179301;28;20018;-75
2023/05/30 01:28:08;;;;;;;8.50;1.42;;;;;;;12.76;83.99;101520.34;5186994;28;20094;-75
2023/05/30 03:53:57;;;;;;;14.10;2.88;;;;;;;11.26;98.02;101605.44;5172234;28;20403;-75
2023/05/30 03:56:28;;;;;;;11.50;1.70;;;;;;;11.24;100.00;101609.03;5181397;28;20033;-76
2023/05/30 03:58:58;;;;;;;13.25;2.00;;;;;;;11.26;99.29;101605.44;5188633;28;20021;-75
2023/05/30 04:01:30;;;;;;;13.27;2.17;;;;;;;11.19;100.00;101611.72;5185985;28;20037;-75
2023/05/30 04:04:00;;;;;;;11.85;2.00;;;;;;;11.39;98.42;101601.69;5170586;28;20442;-71
2023/05/30 04:06:31;;;;;;;9.50;1.92;;;;;;;11.26;98.90;101610.69;5184116;28;20038;-75
2023/05/30 04:09:03;;;;;;;12.45;2.53;;;;;;;11.64;97.50;101615.09;5181469;28;20486;-72
2023/05/30 04:11:33;;;;;;;14.65;2.33;;;;;;;11.42;99.21;101619.94;5183128;28;20276;-75
2023/05/30 04:14:03;;;;;;;11.60;2.47;;;;;;;11.69;97.68;101616.72;5183181;28;20025;-75
2023/05/30 04:16:34;;;;;;;13.02;2.17;;;;;;;11.91;95.70;101617.03;5182967;28;20028;-73
2023/05/30 04:19:05;;;;;;;10.77;2.13;;;;;;;12.58;92.55;101615.28;5175774;28;20102;-76
2023/05/30 04:21:35;;;;;;;13.32;2.55;;;;;;;12.54;92.90;101618.91;5184852;28;20048;-75
2023/05/30 04:24:07;;;;;;;9.52;1.90;;;;;;;12.26;92.15;101620.53;5182266;28;20033;-75
2023/05/30 04:26:37;;;;;;;9.50;2.00;;;;;;;12.23;92.84;101617.97;5186783;28;20230;-75
2023/05/30 04:29:08;;;;;;;15.77;2.63;;;;;;;12.22;93.40;101620.63;5182291;28;20408;-74
2023/05/30 04:31:39;;;;;;;18.27;2.30;;;;;;;12.46;93.54;101623.47;5186693;28;20280;-76
2023/05/30 04:34:09;;;;;;;16.98;2.95;;;;;;;12.79;90.74;101612.06;5184078;28;20402;-76
2023/05/30 04:36:40;;;;;;;13.50;2.50;;;;;;;12.68;90.25;101614.16;5186935;28;20121;-75
2023/05/30 04:39:11;;;;;;;13.73;2.70;;;;;;;12.94;90.54;101611.69;5180791;28;20030;-75
2023/05/30 04:41:42;;;;;;;14.10;2.45;;;;;;;13.82;87.60;101616.81;5182324;28;20039;-73
2023/05/30 04:44:12;;;;;;;11.00;1.67;;;;;;;15.60;80.18;101607.72;5184427;28;20030;-76
2023/05/30 04:46:46;;;;;;;12.23;2.42;;;;;;;16.66;75.11;101602.34;5187610;28;20029;-74
2023/05/30 04:49:16;;;;;;;15.85;2.28;;;;;;;17.19;72.31;101609.56;5181970;28;20029;-77
2023/05/30 04:51:47;;;;;;;12.27;2.63;;;;;;;17.78;71.48;101606.72;5184331;28;20044;-76
2023/05/30 04:54:17;;;;;;;13.35;2.30;;;;;;;18.13;68.23;101597.91;5183206;28;20018;-76
2023/05/30 04:56:47;;;;;;;11.43;1.97;;;;;;;18.10;68.42;101611.31;5184029;28;20083;-76
2023/05/30 04:59:18;;;;;;;10.93;2.38;;;;;;;18.81;66.52;101599.63;5182918;28;20277;-75
2023/05/30 05:01:49;;;;;;;9.65;2.00;;;;;;;16.56;71.50;101618.63;5181519;28;20025;-72
2023/05/30 05:04:19;;;;;;;8.95;2.00;;;;;;;17.48;68.65;101600.31;5181539;28;20034;-75
2023/05/30 05:06:49;;;;;;;6.85;1.70;;;;;;;18.26;68.00;101599.88;5190993;28;20030;-73
2023/05/30 05:09:22;;;;;;;11.55;2.30;;;;;;;18.49;67.38;101602.22;5189640;28;20457;-75
2023/05/30 05:11:53;;;;;;;15.35;2.55;;;;;;;18.87;66.49;101598.44;5186014;28;20097;-76
2023/05/30 05:14:24;;;;;;;7.40;1.80;;;;;;;19.31;65.95;101592.44;5186991;28;20104;-75
2023/05/30 05:16:54;;;;;;;11.20;2.53;;;;;;;18.79;66.59;101601.47;5185245;28;20642;-77
2023/05/30 05:19:24;;;;;;;8.18;2.00;;;;;;;19.43;64.66;101605.03;5189975;28;20037;-75
2023/05/30 05:21:56;;;;;;;10.60;2.03;;;;;;;19.80;63.70;101593.22;5185893;28;20026;-77
2023/05/30 05:24:26;;;;;;;9.48;2.10;;;;;;;20.10;62.91;101597.63;5185654;28;20120;-75
2023/05/30 05:26:56;;;;;;;11.53;2.30;;;;;;;19.68;63.68;101592.13;5188771;28;20347;-75
2023/05/30 05:29:27;;;;;;;9.40;2.22;;;;;;;19.92;63.43;101604.00;5187575;28;20271;-75
2023/05/30 05:31:57;;;;;;;10.27;1.90;;;;;;;19.56;65.56;101602.56;5191004;28;20033;-74
2023/05/30 05:34:27;;;;;;;11.52;2.50;;;;;;;20.42;61.69;101609.00;5193470;28;20696;-74
2023/05/30 05:36:57;;;;;;;9.03;2.43;;;;;;;20.63;61.17;101603.28;5183540;28;20034;-75
2023/05/30 05:39:28;;;;;;;11.53;2.20;;;;;;;19.97;63.14;101611.69;5184333;28;20484;-75
2023/05/30 05:41:58;;;;;;;11.90;2.25;;;;;;;19.19;65.02;101616.13;5187261;28;20314;-74
2023/05/30 05:44:29;;;;;;;11.87;2.57;;;;;;;18.24;65.20;101614.13;5186436;28;20513;-74
2023/05/30 05:47:00;;;;;;;7.90;2.08;;;;;;;18.86;65.86;101607.31;5186889;28;20276;-75
2023/05/30 05:49:30;;;;;;;9.90;2.40;;;;;;;18.31;68.50;101612.94;5186736;28;20026;-75
2023/05/30 05:52:00;;;;;;;14.23;2.85;;;;;;;18.64;67.13;101616.47;5184192;28;20783;-75
2023/05/30 05:54:31;;;;;;;14.38;3.10;;;;;;;16.54;75.07;101621.34;5189911;28;20056;-75
2023/05/30 05:57:01;;;;;;;13.25;2.65;;;;;;;17.26;72.22;101623.31;5187428;28;20194;-74
2023/05/30 05:59:31;;;;;;;9.52;2.20;;;;;;;17.36;69.70;101622.00;5189104;28;20101;-76
2023/05/30 06:02:02;;;;;;;13.68;2.50;;;;;;;17.35;69.39;101623.78;5186507;28;20088;-76
2023/05/30 06:04:32;;;;;;;12.48;2.53;;;;;;;16.79;72.77;101614.91;5189966;28;20041;-75
2023/05/30 06:07:03;;;;;;;9.48;2.30;;;;;;;16.62;74.29;101619.25;5188150;28;20029;-76
2023/05/30 06:09:34;;;;;;;10.23;2.75;;;;;;;16.90;73.97;101617.06;5188873;28;20033;-76
2023/05/30 06:12:05;;;;;;;13.55;3.10;;;;;;;17.75;68.43;101617.47;5187691;28;20026;-72
2023/05/30 06:14:36;;;;;;;8.27;2.42;;;;;;;17.41;70.47;101617.34;5188608;28;20026;-75
2023/05/30 06:17:07;;;;;;;12.13;2.75;;;;;;;16.64;74.07;101621.78;5185971;28;20452;-71
2023/05/30 06:19:37;;;;;;;18.35;2.55;;;;;;;17.65;71.64;101621.50;5189149;28;20033;-75
2023/05/30 06:22:08;;;;;;;11.82;2.40;;;;;;;18.12;71.04;101623.53;5186228;28;20087;-75
2023/05/30 06:24:38;;;;;;;15.25;2.78;;;;;;;17.21;71.29;101625.31;5189355;28;20052;-75
2023/05/30 06:27:08;;;;;;;10.63;2.50;;;;;;;16.72;74.08;101630.25;5185156;28;20033;-74
2023/05/30 06:29:39;;;;;;;16.20;2.47;;;;;;;17.22;71.34;101638.47;5185140;28;20280;-74
2023/05/30 06:32:09;;;;;;;14.07;2.30;;;;;;;18.66;67.43;101626.06;5188329;28;20099;-74
2023/05/30 06:34:40;;;;;;;9.77;2.33;;;;;;;19.51;66.36;101618.75;5188877;28;20032;-74
2023/05/30 06:37:10;;;;;;;11.05;2.60;;;;;;;19.61;64.99;101627.88;5188410;28;20038;-71
2023/05/30 06:39:41;;;;;;;8.68;2.63;;;;;;;20.52;62.52;101621.69;5189034;28;20443;-75
2023/05/30 06:42:11;;;;;;;15.55;2.63;;;;;;;19.52;64.34;101630.19;5188074;28;20040;-74
2023/05/30 06:44:41;;;;;;;10.07;2.27;;;;;;;20.99;62.27;101615.22;5187922;28;20506;-77
2023/05/30 06:47:12;;;;;;;9.48;1.90;;;;;;;20.82;62.38;101622.47;5186377;28;20279;-71
2023/05/30 06:49:42;;;;;;;15.32;2.28;;;;;;;19.30;66.09;101635.81;5187633;28;20228;-73
2023/05/30 06:52:12;;;;;;;12.18;2.72;;;;;;;20.18;63.21;101631.72;5184975;28;20487;-76
2023/05/30 06:54:42;;;;;;;13.13;2.85;;;;;;;20.74;63.09;101627.41;5188111;28;20048;-72
2023/05/30 06:57:13;;;;;;;10.03;2.63;;;;;;;19.94;64.73;101641.06;5186999;28;20075;-73
2023/05/30 06:59:43;;;;;;;11.43;2.63;;;;;;;21.49;61.22;101631.50;5188061;28;20273;-77
2023/05/30 07:02:13;;;;;;;14.80;2.23;;;;;;;21.71;59.80;101629.19;5187031;28;20272;-75
2023/05/30 07:04:43;;;;;;;8.33;2.40;;;;;;;21.73;58.55;101632.63;5188760;28;20304;-74
2023/05/30 07:07:14;;;;;;;9.50;2.30;;;;;;;20.96;60.40;101638.47;5186139;28;20579;-72
2023/05/30 07:09:44;;;;;;;10.57;2.43;;;;;;;22.54;58.30;101632.50;5188162;28;20741;-74
2023/05/30 07:12:15;;;;;;;11.38;2.58;;;;;;;20.50;61.80;101650.09;5188651;28;20484;-74
2023/05/30 07:14:45;;;;;;;12.30;2.60;;;;;;;22.57;58.58;101636.78;5189052;28;20484;-75
2023/05/30 07:17:15;;;;;;;10.98;2.25;;;;;;;22.14;58.09;101636.09;5185192;28;20578;-74
2023/05/30 07:19:45;;;;;;;10.10;2.27;;;;;;;22.50;57.00;101640.78;5187911;28;20071;-77
2023/05/30 07:22:16;;;;;;;8.30;2.30;;;;;;;23.08;55.44;101640.19;5188024;28;20819;-75
2023/05/30 07:24:46;;;;;;;7.97;2.23;;;;;;;21.87;58.88;101639.69;5187050;28;20030;-77
2023/05/30 07:27:16;;;;;;;12.10;2.30;;;;;;;22.04;58.33;101636.78;5184956;28;20666;-76
2023/05/30 07:29:47;;;;;;;9.52;2.10;;;;;;;23.26;55.78;101638.94;5189048;28;20433;-77
2023/05/30 07:32:17;;;;;;;7.88;2.15;;;;;;;23.29;56.71;101636.03;5185143;28;20032;-74
2023/05/30 07:34:47;;;;;;;10.60;2.40;;;;;;;21.81;58.47;101640.09;5186352;28;20052;-73
2023/05/30 07:37:18;;;;;;;7.63;2.40;;;;;;;21.71;59.47;101637.19;5181677;28;20026;-75
2023/05/30 07:39:48;;;;;;;8.35;2.22;;;;;;;23.97;55.69;101629.25;5185378;28;20442;-73
2023/05/30 07:42:18;;;;;;;8.03;2.17;;;;;;;24.97;54.38;101624.09;5188192;28;20025;-77
2023/05/30 07:44:48;;;;;;;6.70;1.90;;;;;;;23.10;56.05;101634.75;5185889;28;20728;-74
2023/05/30 07:47:19;;;;;;;10.13;2.20;;;;;;;23.89;55.14;101634.28;5187963;28;20284;-76
2023/05/30 07:49:49;;;;;;;12.90;2.60;;;;;;;22.76;56.06;101640.72;5185267;28;20355;-74
2023/05/30 07:52:19;;;;;;;9.50;2.23;;;;;;;23.58;54.62;101631.28;5186312;28;20912;-75
2023/05/30 07:54:50;;;;;;;8.37;2.03;;;;;;;24.21;53.19;101635.41;5187998;28;20331;-75
2023/05/30 07:57:20;;;;;;;5.97;1.98;;;;;;;25.14;51.27;101628.13;5182495;28;20288;-74
2023/05/30 07:59:50;;;;;;;7.68;2.15;;;;;;;25.31;52.27;101619.66;5176678;28;20052;-74
2023/05/30 08:02:24;;;;;;;11.80;2.55;;;;;;;24.11;54.03;101628.22;5186308;28;20034;-77
2023/05/30 08:04:55;;;;;;;8.38;1.98;;;;;;;24.43;53.97;101619.47;5185081;28;20022;-75
2023/05/30 08:07:26;;;;;;;7.13;2.20;;;;;;;24.08;55.46;101621.25;5183963;28;20105;-75
2023/05/30 08:09:56;;;;;;;10.07;1.90;;;;;;;25.37;53.71;101614.66;5184784;28;20104;-76
2023/05/30 08:12:29;;;;;;;8.82;1.67;;;;;;;24.37;54.26;101613.75;5187027;28;20037;-77
2023/05/30 08:14:59;;;;;;;10.32;2.25;;;;;;;23.72;54.38;101621.28;5184756;28;20303;-77
2023/05/30 08:17:30;;;;;;;9.80;2.05;;;;;;;23.19;56.52;101628.81;5186747;28;20030;-75
2023/05/30 08:20:01;;;;;;;7.47;2.08;;;;;;;24.44;55.45;101618.50;5184754;28;20032;-73
2023/05/30 08:22:31;;;;;;;8.63;2.15;;;;;;;21.70;57.87;101637.28;5183564;28;20033;-74
2023/05/30 08:25:02;;;;;;;7.10;2.10;;;;;;;24.34;54.55;101622.84;5185190;28;20034;-76
2023/05/30 08:27:34;;;;;;;8.27;2.00;;;;;;;24.11;54.50;101618.38;5183430;28;20571;-75
2023/05/30 08:30:05;;;;;;;9.27;2.25;;;;;;;25.83;52.08;101609.09;5185619;28;20025;-75
2023/05/30 08:32:37;;;;;;;9.35;2.17;;;;;;;23.37;53.84;101630.16;5183278;28;20080;-77
2023/05/30 08:35:09;;;;;;;7.00;2.15;;;;;;;24.08;53.45;101618.59;5183605;28;20056;-75
2023/05/30 08:37:39;;;;;;;8.25;1.63;;;;;;;26.73;49.28;101615.66;5186920;28;20494;-76
2023/05/30 08:40:13;;;;;;;5.65;1.77;;;;;;;28.43;47.50;101609.97;5184144;28;20033;-78
2023/05/30 08:42:46;;;;;;;6.90;1.92;;;;;;;25.94;49.68;101614.44;5188424;28;20479;-76
2023/05/30 08:45:19;;;;;;;8.40;2.10;;;;;;;23.50;54.32;101631.81;5185262;28;20110;-76
2023/05/30 08:47:54;;;;;;;10.10;2.35;;;;;;;26.69;51.37;101605.31;5189949;28;20025;-75
2023/05/30 08:50:25;;;;;;;13.70;2.17;;;;;;;26.82;50.18;101606.81;5190465;28;20025;-74
2023/05/30 08:53:03;;;;;;;12.05;2.05;;;;;;;27.52;49.04;101602.31;5186971;28;20116;-75
2023/05/30 08:56:15;;;;;;;7.80;2.17;;;;;;;25.96;51.49;101601.75;5189166;28;20112;-76
2023/05/30 08:58:50;;;;;;;6.57;1.90;;;;;;;26.94;48.34;101598.53;5192553;28;20036;-74
2023/05/30 09:01:22;;;;;;;10.23;2.03;;;;;;;27.41;47.96;101607.81;5190828;28;20028;-74
2023/05/30 09:03:52;;;;;;;9.93;2.20;;;;;;;27.04;49.48;101607.50;5187319;28;20774;-77
2023/05/30 09:06:25;;;;;;;6.93;2.17;;;;;;;27.35;47.27;101614.59;5188102;28;20116;-76
2023/05/30 09:08:56;;;;;;;9.88;1.80;;;;;;;27.29;48.09;101608.91;5182870;28;20495;-74
2023/05/30 09:11:27;;;;;;;7.38;1.95;;;;;;;26.25;49.31;101621.63;5193047;28;20034;-75
2023/05/30 09:13:57;;;;;;;6.85;1.80;;;;;;;27.85;48.49;101610.94;5188570;28;20076;-76
2023/05/30 09:16:27;;;;;;;10.05;1.90;;;;;;;28.70;46.12;101612.78;5186743;28;20401;-76
2023/05/30 09:18:58;;;;;;;8.57;1.80;;;;;;;28.22;46.00;101611.06;5190305;28;20021;-74
2023/05/30 09:21:31;;;;;;;9.05;2.30;;;;;;;28.10;47.25;101604.16;5188127;28;20470;-75
2023/05/30 09:24:05;;;;;;;6.57;2.10;;;;;;;28.26;46.33;101604.41;5188744;28;20034;-76
2023/05/30 09:26:35;;;;;;;5.70;1.70;;;;;;;27.40;47.33;101611.47;5191439;28;20032;-76
2023/05/30 09:29:12;;;;;;;8.07;1.80;;;;;;;28.52;46.69;101601.03;5185492;28;20030;-76
2023/05/30 09:31:42;;;;;;;7.63;1.95;;;;;;;27.19;47.53;101608.00;5189356;28;20331;-75
2023/05/30 09:34:18;;;;;;;11.03;2.10;;;;;;;26.57;48.43;101612.59;5187678;28;20438;-75
2023/05/30 09:36:55;;;;;;;8.43;1.85;;;;;;;26.27;49.58;101606.25;5188928;28;20542;-72
2023/05/30 09:39:27;;;;;;;11.38;1.90;;;;;;;26.01;49.14;101611.09;5188283;28;20025;-75
2023/05/30 09:41:58;;;;;;;8.65;2.17;;;;;;;25.88;49.87;101617.63;5188375;28;20030;-77
2023/05/30 09:44:28;;;;;;;8.43;2.17;;;;;;;24.36;51.72;101623.56;5188820;28;20029;-72
2023/05/30 09:47:00;;;;;;;6.47;1.60;;;;;;;26.25;50.19;101611.75;5186070;28;20349;-76
2023/05/30 09:49:30;;;;;;;9.18;1.85;;;;;;;26.43;47.82;101614.69;5185594;28;20710;-77
2023/05/30 09:52:01;;;;;;;10.88;2.20;;;;;;;26.83;47.24;101612.06;5193328;28;20021;-77
2023/05/30 09:54:33;;;;;;;10.95;2.15;;;;;;;26.30;48.03;101614.91;5191799;28;20446;-74
2023/05/30 09:57:03;;;;;;;10.00;1.92;;;;;;;26.39;48.05;101607.91;5186076;28;20037;-76
2023/05/30 09:59:34;;;;;;;6.88;2.28;;;;;;;25.85;50.26;101609.84;5186808;28;20029;-74
2023/05/30 10:02:05;;;;;;;11.35;1.92;;;;;;;25.73;49.83;101610.81;5187122;28;20116;-76
2023/05/30 10:04:39;;;;;;;10.75;2.72;;;;;;;25.08;50.05;101607.19;5187779;28;20026;-77
2023/05/30 10:07:10;;;;;;;5.07;1.55;;;;;;;25.81;49.28;101598.47;5189493;28;20030;-72
2023/05/30 10:09:41;;;;;;;7.80;1.58;;;;;;;25.61;49.43;101607.31;5186640;28;20172;-76
2023/05/30 10:12:11;;;;;;;11.23;1.98;;;;;;;24.40;51.09;101618.84;5189152;28;20358;-73
2023/05/30 10:14:41;;;;;;;9.30;1.77;;;;;;;24.41;51.18;101605.34;5190298;28;20057;-75
2023/05/30 10:17:16;;;;;;;8.60;1.95;;;;;;;23.85;51.88;101614.13;5189519;28;20033;-72
2023/05/30 10:19:56;;;;;;;9.98;2.22;;;;;;;22.39;53.94;101614.88;5189035;28;20022;-77
2023/05/30 10:22:30;;;;;;;7.85;1.80;;;;;;;22.91;53.36;101613.84;5187130;28;20521;-76
2023/05/30 10:25:02;;;;;;;11.07;2.20;;;;;;;22.71;54.50;101606.38;5186672;28;20021;-75
2023/05/30 10:27:38;;;;;;;8.20;1.83;;;;;;;22.28;54.77;101611.19;5186259;28;20056;-76
2023/05/30 10:30:11;;;;;;;5.20;1.50;;;;;;;22.53;54.00;101603.25;5186436;28;20030;-75
2023/05/30 10:32:45;;;;;;;13.60;3.55;;;;;;;22.68;56.02;101609.25;5186034;28;20651;-75
2023/05/30 10:35:18;;;;;;;11.43;2.00;;;;;;;22.67;54.04;101608.50;5187521;28;20067;-76
2023/05/30 10:37:50;;;;;;;9.32;2.20;;;;;;;22.58;53.97;101604.66;5186420;28;20026;-72
2023/05/30 10:40:20;;;;;;;10.07;1.92;;;;;;;22.09;53.83;101605.41;5191933;28;20100;-75
2023/05/30 10:43:03;;;;;;;6.85;1.70;;;;;;;22.06;52.85;101608.28;5185885;28;20060;-75
2023/05/30 10:45:45;;;;;;;6.88;1.70;;;;;;;21.92;53.33;101608.31;5185423;28;20492;-74
2023/05/30 10:48:27;;;;;;;7.05;1.50;;;;;;;22.04;54.23;101599.50;5182766;28;20083;-76
2023/05/30 10:50:59;;;;;;;4.80;1.48;;;;;;;22.18;53.47;101604.75;5186360;28;20446;-75
2023/05/30 10:53:39;;;;;;;7.10;1.80;;;;;;;22.10;53.54;101604.44;5186902;28;20037;-77
2023/05/30 10:56:38;;;;;;;8.60;1.70;;;;;;;21.91;53.70;101590.66;5187767;28;20291;-72
2023/05/30 10:59:17;;;;;;;6.00;1.45;;;;;;;22.18;53.32;101596.78;5187292;28;20098;-75
2023/05/30 11:02:06;;;;;;;7.88;1.67;;;;;;;22.09;54.49;101597.41;5184035;28;20026;-73
2023/05/30 11:04:42;;;;;;;5.25;1.83;;;;;;;22.22;54.69;101593.81;5183861;28;20036;-76
2023/05/30 11:07:13;;;;;;;7.80;1.60;;;;;;;22.22;54.47;101593.81;5183730;28;20660;-73
2023/05/30 11:10:07;;;;;;;7.90;1.60;;;;;;;22.02;54.60;101588.97;5187199;28;20285;-75
2023/05/30 11:12:43;;;;;;;8.15;1.80;;;;;;;21.66;54.75;101590.53;5186420;28;20030;-76
2023/05/30 11:15:14;;;;;;;;;;;;;;;21.84;55.73;101586.66;5190068;28;20397;-73
2023/05/30 11:17:45;;;;;;;7.05;1.48;;;;;;;22.15;54.24;101579.22;5185998;28;19941;-75
2023/05/30 11:20:16;;;;;;;7.35;1.60;;;;;;;22.23;54.43;101584.03;5185959;28;20056;-73
2023/05/30 11:23:01;;;;;;;9.10;1.98;;;;;;;22.18;53.51;101575.47;5188098;28;20025;-76
2023/05/30 11:25:32;;;;;;;7.00;1.75;;;;;;;21.67;55.12;101577.13;5184062;28;20434;-74
2023/05/30 11:28:03;;;;;;;10.60;1.90;;;;;;;22.40;55.58;101570.44;5184656;28;20045;-75
2023/05/30 11:30:37;;;;;;;7.37;1.33;;;;;;;22.42;54.79;101568.53;5188712;28;20541;-76
2023/05/30 11:33:12;;;;;;;8.25;1.70;;;;;;;22.42;55.57;101566.69;5184516;28;20499;-75
2023/05/30 11:35:47;;;;;;;5.50;1.43;;;;;;;22.08;54.81;101574.41;5188061;28;20041;-75
2023/05/30 11:38:19;;;;;;;6.28;1.60;;;;;;;21.73;55.32;101574.06;5188067;28;20109;-75
2023/05/30 11:40:50;;;;;;;5.60;1.60;;;;;;;21.65;55.08;101575.50;5186119;28;20397;-74
2023/05/30 11:43:20;;;;;;;9.05;1.73;;;;;;;21.37;55.06;101572.91;5189921;28;20438;-75
2023/05/30 11:45:53;;;;;;;10.25;1.83;;;;;;;21.35;56.02;101577.44;5184053;28;20025;-75
2023/05/30 11:48:24;;;;;;;8.45;1.35;;;;;;;21.68;55.80;101564.66;5186108;28;20034;-75
2023/05/30 11:50:55;;;;;;;7.22;1.63;;;;;;;21.95;54.71;101569.00;5185611;28;20033;-75
2023/05/30 11:53:26;;;;;;;10.65;1.80;;;;;;;21.70;54.82;101568.06;5187207;28;20029;-77
2023/05/30 11:55:56;;;;;;;8.18;1.50;;;;;;;21.76;55.16;101570.34;5184539;28;20025;-76
2023/05/30 11:58:26;;;;;;;5.67;1.60;;;;;;;21.64;55.38;101568.47;5186486;28;20032;-75
2023/05/30 12:00:58;;;;;;;7.20;1.40;;;;;;;22.02;54.94;101569.47;5183695;28;20723;-74
2023/05/30 12:03:31;;;;;;;4.50;1.50;;;;;;;21.54;55.04;101564.69;5183364;28;20474;-76
2023/05/30 12:06:13;;;;;;;7.53;1.30;;;;;;;21.69;55.03;101571.69;5187033;28;20050;-75
2023/05/30 12:08:46;;;;;;;5.90;1.23;;;;;;;21.90;54.83;101568.47;5185027;28;20422;-76
2023/05/30 12:11:16;;;;;;;5.55;1.55;;;;;;;21.67;54.54;101570.94;5184138;28;20056;-74
2023/05/30 12:13:47;;;;;;;15.25;1.65;;;;;;;21.79;55.45;101568.34;5186578;28;20140;-74
2023/05/30 12:16:17;;;;;;;7.43;1.58;;;;;;;21.82;54.53;101570.81;5192342;28;20029;-76
2023/05/30 12:18:47;;;;;;;7.55;1.40;;;;;;;21.98;53.38;101565.31;5191285;28;20090;-75
2023/05/30 12:21:18;;;;;;;6.90;1.50;;;;;;;21.66;54.58;101558.59;5191560;28;20226;-74
2023/05/30 12:23:49;;;;;;;5.88;1.38;;;;;;;21.74;54.48;101559.78;5188256;28;20109;-73
2023/05/30 12:26:20;;;;;;;7.05;1.27;;;;;;;21.84;55.25;101558.25;5190551;28;20029;-76
2023/05/30 12:28:50;;;;;;;5.95;1.38;;;;;;;21.82;55.55;101561.94;5191778;28;20471;-75
2023/05/30 12:31:22;;;;;;;6.35;1.42;;;;;;;22.21;54.68;101551.28;5191264;28;20025;-75
2023/05/30 12:33:53;;;;;;;6.70;1.40;;;;;;;22.51;54.62;101551.88;5188056;28;20087;-74
2023/05/30 12:36:23;;;;;;;5.88;2.22;;;;;;;22.62;53.32;101555.50;5192070;28;20260;-75
2023/05/30 12:38:55;;;;;;;4.95;1.40;;;;;;;21.95;55.18;101555.69;5187347;28;20041;-75
2023/05/30 12:41:30;;;;;;;8.20;1.58;;;;;;;21.80;57.62;101553.22;5192631;28;20487;-75
2023/05/30 12:44:00;;;;;;;6.32;1.30;;;;;;;21.75;54.46;101547.34;5190089;28;20387;-75
2023/05/30 12:46:33;;;;;;;8.13;1.40;;;;;;;22.30;55.03;101553.34;5193267;28;20029;-76
2023/05/30 12:49:04;;;;;;;9.90;1.83;;;;;;;22.29;54.07;101547.13;5188008;28;20037;-75
2023/05/30 12:51:35;;;;;;;7.03;1.95;;;;;;;22.15;54.83;101543.72;5189570;28;20037;-75
2023/05/30 12:54:08;;;;;;;8.07;1.83;;;;;;;21.81;56.78;101544.28;5190197;28;20029;-75
2023/05/30 12:56:38;;;;;;;5.78;1.45;;;;;;;21.54;58.11;101546.06;5189906;28;20112;-75
2023/05/30 12:59:09;;;;;;;5.22;1.40;;;;;;;22.10;57.96;101535.19;5189335;28;20148;-75
2023/05/30 13:01:39;;;;;;;4.00;1.42;;;;;;;22.41;56.15;101532.19;5182982;28;20110;-75
2023/05/30 13:04:09;;;;;;;3.63;1.35;;;;;;;22.23;56.24;101539.56;5192288;28;20037;-76
2023/05/30 13:06:40;;;;;;;6.20;1.42;;;;;;;22.29;55.85;101540.97;5190539;28;20040;-74
2023/05/30 13:09:11;;;;;;;3.88;1.10;;;;;;;22.38;55.68;101537.66;5185655;28;20064;-76
2023/05/30 13:11:42;;;;;;;5.53;1.08;;;;;;;22.18;54.94;101538.19;5188708;28;20121;-75
2023/05/30 13:14:12;;;;;;;7.22;1.50;;;;;;;22.21;55.73;101536.16;5191455;28;20167;-76
2023/05/30 13:16:43;;;;;;;5.68;1.40;;;;;;;22.20;55.68;101538.91;5190231;28;20618;-75
2023/05/30 13:19:15;;;;;;;4.95;1.30;;;;;;;22.31;55.73;101537.25;5190919;28;20499;-75
2023/05/30 13:21:45;;;;;;;5.45;1.42;;;;;;;22.49;56.02;101538.69;5188322;28;20029;-76
2023/05/30 13:24:15;;;;;;;6.38;1.40;;;;;;;22.47;54.50;101542.41;5190176;28;20032;-71
2023/05/30 13:26:46;;;;;;;6.37;1.40;;;;;;;22.59;55.81;101533.56;5185325;28;20029;-74
2023/05/30 13:29:16;;;;;;;5.95;1.48;;;;;;;22.20;56.62;101538.91;5188987;28;20591;-73
2023/05/30 13:31:47;;;;;;;6.32;1.33;;;;;;;22.00;55.99;101534.97;5186862;28;20021;-74
2023/05/30 13:34:17;;;;;;;6.35;1.58;;;;;;;21.59;57.09;101533.31;5190402;28;20026;-71
2023/05/30 13:36:47;;;;;;;5.10;1.35;;;;;;;21.76;57.26;101535.75;5190085;28;20032;-74
2023/05/30 13:39:18;;;;;;;4.88;1.25;;;;;;;22.08;57.65;101527.28;5189469;28;20059;-74
2023/05/30 13:41:48;;;;;;;4.07;1.48;;;;;;;22.21;56.33;101527.31;5190442;28;20026;-73
2023/05/30 13:44:19;;;;;;;8.55;2.08;;;;;;;22.45;55.79;101520.34;5188698;28;20025;-75
2023/05/30 13:46:49;;;;;;;5.28;1.33;;;;;;;22.48;55.02;101517.47;5185357;28;20113;-73
2023/05/30 13:49:21;;;;;;;7.63;1.30;;;;;;;22.81;55.90;101522.13;5188463;28;20032;-75
2023/05/30 13:51:52;;;;;;;6.18;1.25;;;;;;;22.74;55.04;101512.88;5185734;28;20268;-74
2023/05/30 13:54:22;;;;;;;5.70;1.27;;;;;;;23.04;56.11;101505.31;5185414;28;20021;-74
2023/05/30 13:56:52;;;;;;;5.13;1.10;;;;;;;23.13;55.84;101523.38;5181566;28;20363;-75
2023/05/30 13:59:23;;;;;;;15.98;1.80;;;;;;;23.06;55.71;101519.41;5190524;28;20033;-75
2023/05/30 14:01:53;;;;;;;6.70;1.30;;;;;;;23.08;54.98;101517.50;5188988;28;20030;-76
2023/05/30 14:04:24;;;;;;;3.78;1.27;;;;;;;22.69;55.94;101520.31;5186922;28;20303;-75
2023/05/30 14:06:54;;;;;;;4.15;1.20;;;;;;;22.58;55.49;101524.69;5186572;28;20475;-72